Hovedside
METAR-TAF:

METAR-TAF

Lufthavner :

Bamako-Sénou internasjonale lufthavn

Bamako, Mali

breddegrad: 12-32N, lengdegrad: 007-57W, høyde over havet: 380 m

Gjeldene værobservasjon

Denne rapporten ble laget for 49 minutter siden, klokken 17:00 UTC
Vind 5 kt fra Øst-sørøst, skiftende mellom Øst og Sør-sørøst
Temperatur 33°C
Luftfuktighet 15%
Trykk 1014 hPa
Sikt 10 km eller mer
ingen skyer under 1500 m og ingen bygeskyer

METAR: GABS 121700Z 11005KT 080V160 CAVOK 33/03 Q1014 NOSIG

Tid: 17:49 (17:49 UTC)

Varsel

Denne rapporten ble laget for 49 minutter siden, klokken 17:00 UTC
Varsel gyldig fra 12. klokken 18 UTC til 13. klokken 24 UTC
Vind 8 kt fra Øst-nordøst
Sikt 10 km eller mer
ingen skyer under 1500 m og ingen bygeskyer

TAF: GABS 121700Z 1218/1324 06008KT CAVOK

Værobservasjoner og værvarsel for over 4000 flyplasser (METAR- og TAF-rapporter).

Tilgjengelige stasjoner er representert av de røde og gule prikkene på kartet.

Hold musepekeren over prikken for å se navnet på stasjonen.

Klikk så for å se værobservasjoner og -varsler.

For å forandre kartet kan du klikke på den grønne knappen med svart kryss for å zoome inn, på den grønne knappen med strek for å zoome ut, eller på de grønne pilene for å se tilstøtende kart.


METAR-TAF: